This is the latest recevied weather packets stored in our database for station/object N9MXT-13. If no packets are shown the sender has not sent any weather packets the latest 10 day(s).
| Time | Temp. | Humidity | Pressure | Rain* | Wind** | Luminosity | Snow |
|---|---|---|---|---|---|---|---|
| 1777962901 | 13.89° C | 48% | 1002.9 hPa | 0 mm | - | - | - |
| 1777961098 | 14.44° C | 46% | 1002.8 hPa | 0 mm | - | - | - |
| 1777956300 | 15.56° C | 42% | 1001.8 hPa | 0 mm | - | - | - |
| 1777953000 | 17.22° C | 45% | 1001.6 hPa | 0 mm | - | - | - |
| 1777952401 | 17.78° C | 46% | 1001.3 hPa | 0 mm | - | - | - |
| 1777952100 | 17.78° C | 46% | 1001.3 hPa | 0 mm | - | - | - |
| 1777949100 | 18.89° C | 58% | 1000.6 hPa | 0 mm | - | - | - |
| 1777948500 | 18.89° C | 59% | 1000.3 hPa | 0 mm | - | - | - |
| 1777946700 | 18.33° C | 67% | 999.4 hPa | 0 mm | - | - | - |
| 1777945800 | 18.89° C | 65% | 999.1 hPa | 0 mm | - | - | - |
| 1777943400 | 20.56° C | 57% | 998.3 hPa | 0 mm | - | - | - |
| 1777943101 | 20.56° C | 56% | 998.4 hPa | 0 mm | - | - | - |
| 1777939501 | 21.67° C | 50% | 996.9 hPa | 0 mm | - | - | - |
| 1777938000 | 22.22° C | 49% | 997 hPa | 0 mm | - | - | - |
| 1777937701 | 22.22° C | 49% | 997.1 hPa | 0 mm | - | - | - |
| 1777934998 | 21.67° C | 48% | 998.1 hPa | 0 mm | - | - | - |
| 1777933800 | 21.67° C | 50% | 998.1 hPa | 0 mm | - | - | - |
| 1777932006 | 25.56° C | 35% | 997.7 hPa | 0 mm | - | - | - |
| 1777931400 | 26.11° C | 35% | 997.6 hPa | 0 mm | - | - | - |
| 1777931099 | 26.11° C | 34% | 997.6 hPa | 0 mm | - | - | - |
| 1777930500 | 26.11° C | 33% | 997.8 hPa | 0 mm | - | - | - |
| 1777928699 | 26.11° C | 32% | 998.1 hPa | 0 mm | - | - | - |
| 1777927799 | 26.67° C | 30% | 998.2 hPa | 0 mm | - | - | - |
| 1777926899 | 27.22° C | 30% | 998.3 hPa | 0 mm | - | - | - |
| 1777926299 | 26.67° C | 29% | 998.2 hPa | 0 mm | - | - | - |
* Rain latest hour (hover to see other rain measurements)
** Current wind speed in m/s (hover to see current wind gust speed)